Time;durP1;ratioP1;P1;durP2;ratioP2;P2;SDS_P1;SDS_P2;PMS_P1;PMS_P2;Temp;Humidity;BMP_temperature;BMP_pressure;BME280_temperature;BME280_humidity;BME280_pressure;Samples;Min_cycle;Max_cycle;Signal;HPM_P1;HPM_P2
2022/05/23 00:02:13;;;;;;;4.13;2.38;;;;;;;5.84;58.95;98568.09;5013562;28;20049;-60
2022/05/23 00:04:39;;;;;;;3.75;2.28;;;;;;;5.76;59.45;98568.28;5012404;28;20034;-59
2022/05/23 00:07:14;;;;;;;3.33;2.65;;;;;;;5.60;59.58;98552.34;5013888;28;20096;-59
2022/05/23 00:09:40;;;;;;;3.65;2.30;;;;;;;5.69;59.07;98562.41;5013352;28;20105;-58
2022/05/23 00:12:06;;;;;;;3.15;2.15;;;;;;;5.72;59.72;98570.94;5013437;28;20523;-59
2022/05/23 00:14:32;;;;;;;3.20;2.28;;;;;;;5.70;58.23;98571.81;5012976;28;20026;-58
2022/05/23 00:16:58;;;;;;;4.43;2.60;;;;;;;5.58;60.00;98566.06;5013585;28;20068;-59
2022/05/23 00:19:25;;;;;;;2.90;2.28;;;;;;;5.60;59.34;98575.44;5012070;28;20096;-57
2022/05/23 00:21:51;;;;;;;3.17;2.40;;;;;;;5.71;59.29;98575.22;5013078;28;20108;-58
2022/05/23 00:24:18;;;;;;;3.88;2.55;;;;;;;5.82;58.70;98578.41;5013169;28;20471;-58
2022/05/23 00:26:48;;;;;;;3.38;2.70;;;;;;;5.86;59.42;98574.06;5013479;28;20030;-58
2022/05/23 00:29:14;;;;;;;3.97;2.70;;;;;;;5.85;58.56;98565.50;4996596;28;20038;-58
2022/05/23 00:35:17;;;;;;;6.38;2.55;;;;;;;5.93;58.61;98574.78;5013240;28;20426;-57
2022/05/23 00:37:09;;;;;;;4.35;2.80;;;;;;;5.94;59.08;98581.63;5013134;28;20034;-58
2022/05/23 00:39:34;;;;;;;4.85;2.60;;;;;;;5.96;57.98;98570.44;5012512;28;20026;-58
2022/05/23 00:44:45;;;;;;;3.65;2.70;;;;;;;6.01;58.29;98585.78;5012867;28;20041;-59
2022/05/23 00:47:23;;;;;;;3.92;2.60;;;;;;;5.88;59.28;98565.44;5013177;28;20030;-58
2022/05/23 00:49:49;;;;;;;4.72;2.67;;;;;;;6.00;58.96;98586.66;5012646;28;20105;-59
2022/05/23 00:52:24;;;;;;;5.03;3.05;;;;;;;5.61;58.24;98525.75;5012479;28;20463;-58
2022/05/23 00:54:54;;;;;;;4.00;2.65;;;;;;;5.58;58.61;98528.38;5012256;28;20025;-59
2022/05/23 00:57:25;;;;;;;4.75;3.00;;;;;;;5.56;58.61;98529.28;5012973;28;20061;-59
2022/05/23 00:59:52;;;;;;;5.80;2.90;;;;;;;5.83;59.06;98587.81;5012637;28;20105;-59
2022/05/23 01:02:19;;;;;;;4.63;2.80;;;;;;;5.37;59.66;98529.66;5012179;28;20049;-59
2022/05/23 01:04:45;;;;;;;4.15;3.05;;;;;;;5.68;59.21;98590.69;5012705;28;20026;-58
2022/05/23 01:07:12;;;;;;;4.30;2.97;;;;;;;5.66;60.54;98593.28;5012232;28;20030;-57
2022/05/23 01:09:38;;;;;;;5.95;3.42;;;;;;;5.67;59.76;98584.72;5012451;28;20164;-58
2022/05/23 01:12:04;;;;;;;5.63;3.15;;;;;;;5.62;60.74;98596.78;5012510;28;20025;-58
2022/05/23 01:14:54;;;;;;;5.82;3.30;;;;;;;5.63;60.08;98593.34;5012418;28;20033;-59
2022/05/23 01:17:22;;;;;;;5.82;3.60;;;;;;;5.29;60.45;98558.03;5013093;28;20080;-58
2022/05/23 01:19:48;;;;;;;6.60;3.30;;;;;;;5.53;60.50;98597.81;5012850;28;20075;-58
2022/05/23 01:22:42;;;;;;;6.53;3.38;;;;;;;5.53;60.29;98600.38;5013049;28;20441;-60
2022/05/23 01:25:26;;;;;;;4.57;3.53;;;;;;;5.46;60.99;98600.53;5010023;28;20045;-58
2022/05/23 01:27:52;;;;;;;5.15;3.33;;;;;;;5.45;60.74;98591.13;5013039;28;20038;-58
2022/05/23 01:30:19;;;;;;;4.85;3.80;;;;;;;5.41;60.15;98602.34;5012735;28;20494;-59
2022/05/23 01:32:44;;;;;;;4.50;3.40;;;;;;;5.38;61.07;98597.25;5012850;28;20118;-58
2022/05/23 01:35:11;;;;;;;5.13;3.10;;;;;;;5.26;61.62;98595.75;5011986;28;20442;-58
2022/05/23 01:37:37;;;;;;;4.78;3.13;;;;;;;5.33;60.67;98594.75;5012708;28;20037;-57
2022/05/23 01:40:06;;;;;;;6.38;3.40;;;;;;;5.39;60.80;98615.19;5012560;28;20091;-58
2022/05/23 01:42:32;;;;;;;4.80;3.10;;;;;;;5.33;60.66;98597.31;5012621;28;20081;-58
2022/05/23 01:44:58;;;;;;;5.32;3.20;;;;;;;5.36;60.96;98592.16;5012717;28;20030;-58
2022/05/23 01:47:23;;;;;;;4.55;3.25;;;;;;;5.29;60.80;98598.28;5012456;28;20021;-58
2022/05/23 01:49:49;;;;;;;4.13;3.10;;;;;;;5.28;62.10;98594.00;5012797;28;20034;-58
2022/05/23 01:52:15;;;;;;;5.60;3.38;;;;;;;5.33;61.12;98597.31;5012447;28;20441;-58
2022/05/23 01:54:40;;;;;;;5.32;3.35;;;;;;;5.32;61.13;98591.34;4998001;28;20027;-58
2022/05/23 01:57:08;;;;;;;6.00;3.28;;;;;;;5.04;61.11;98524.28;5002157;28;20554;-58
2022/05/23 02:02:18;;;;;;;4.07;3.38;;;;;;;5.48;60.30;98591.06;5011651;28;20048;-59
2022/05/23 02:04:45;;;;;;;5.00;3.25;;;;;;;5.55;59.49;98589.25;5011516;28;20094;-59
2022/05/23 02:07:12;;;;;;;3.60;3.00;;;;;;;5.61;59.59;98592.53;5011706;28;20128;-58
2022/05/23 02:09:38;;;;;;;3.47;2.90;;;;;;;5.68;58.26;98588.13;5011488;28;20026;-58
2022/05/23 02:12:06;;;;;;;3.75;2.92;;;;;;;5.39;57.71;98532.19;5011890;28;20026;-58
2022/05/23 02:14:31;;;;;;;3.97;2.90;;;;;;;5.79;58.15;98591.34;5011149;28;20101;-59
2022/05/23 02:16:57;;;;;;;4.85;3.10;;;;;;;5.87;58.74;98586.88;5011935;28;20105;-58
2022/05/23 02:19:23;;;;;;;5.65;3.50;;;;;;;5.92;59.35;98586.78;5011553;28;20402;-57
2022/05/23 02:21:49;;;;;;;5.60;2.90;;;;;;;6.01;58.77;98596.94;5011615;28;20037;-59
2022/05/23 02:24:15;;;;;;;5.82;3.20;;;;;;;6.12;58.07;98593.28;5011585;28;20030;-59
2022/05/23 02:26:41;;;;;;;4.78;3.03;;;;;;;6.26;57.66;98593.84;5011416;28;20577;-58
2022/05/23 02:29:08;;;;;;;3.65;3.05;;;;;;;6.30;57.97;98600.59;5014261;28;20030;-59
2022/05/23 02:31:34;;;;;;;4.78;3.25;;;;;;;6.46;56.43;98600.28;5015305;28;20065;-59
2022/05/23 02:34:00;;;;;;;3.72;3.28;;;;;;;6.60;55.25;98599.94;5015334;28;20046;-58
2022/05/23 02:36:26;;;;;;;6.78;3.33;;;;;;;6.65;56.34;98593.78;5015167;28;20037;-58
2022/05/23 02:38:52;;;;;;;4.75;3.08;;;;;;;6.72;56.12;98597.09;5015317;28;20439;-58
2022/05/23 02:41:17;;;;;;;3.47;3.03;;;;;;;6.73;56.60;98593.63;5015267;28;20033;-59
2022/05/23 02:43:43;;;;;;;4.85;3.20;;;;;;;6.87;55.98;98590.75;5015094;28;20037;-59
2022/05/23 02:46:09;;;;;;;8.50;3.33;;;;;;;7.07;54.37;98587.69;5015133;28;20026;-59
2022/05/23 02:48:35;;;;;;;5.25;3.40;;;;;;;7.19;53.40;98587.34;5015591;28;20030;-59
2022/05/23 02:51:01;;;;;;;6.80;2.90;;;;;;;7.20;53.12;98586.47;5014522;28;20040;-58
2022/05/23 02:53:26;;;;;;;3.88;2.58;;;;;;;7.29;52.61;98597.44;5013550;28;20108;-58
2022/05/23 02:55:52;;;;;;;4.85;2.88;;;;;;;7.25;52.71;98581.19;5014440;28;20033;-58
2022/05/23 02:58:18;;;;;;;4.10;3.20;;;;;;;7.20;54.05;98590.78;5014917;28;20109;-58
2022/05/23 03:00:44;;;;;;;5.68;3.67;;;;;;;7.26;53.74;98590.63;5014765;28;20779;-58
2022/05/23 03:03:09;;;;;;;4.80;3.25;;;;;;;7.04;53.53;98549.97;5014639;28;20046;-58
2022/05/23 03:05:44;;;;;;;7.55;4.30;;;;;;;7.20;53.20;98555.56;5014419;28;20030;-59
2022/05/23 03:08:12;;;;;;;7.60;3.80;;;;;;;7.17;51.71;98531.63;5014736;28;20104;-59
2022/05/23 03:10:38;;;;;;;7.95;3.38;;;;;;;7.72;51.82;98589.38;5014878;28;20026;-59
2022/05/23 03:13:04;;;;;;;6.00;3.65;;;;;;;7.87;50.88;98592.44;5014218;28;20037;-58
2022/05/23 03:15:30;;;;;;;9.48;3.40;;;;;;;7.91;50.63;98594.03;5014621;28;20026;-57
2022/05/23 03:17:56;;;;;;;7.03;3.85;;;;;;;7.85;50.75;98591.63;5014470;28;20026;-58
2022/05/23 03:20:22;;;;;;;4.80;3.25;;;;;;;7.94;49.78;98599.94;5014180;28;20042;-59
2022/05/23 03:28:16;;;;;;;5.10;3.63;;;;;;;7.89;50.42;98593.22;5014193;28;20021;-58
2022/05/23 03:30:42;;;;;;;7.47;3.30;;;;;;;7.81;50.11;98596.03;5014166;28;20088;-59
2022/05/23 03:33:08;;;;;;;6.55;3.78;;;;;;;7.89;50.14;98588.06;5014174;28;20475;-59
2022/05/23 03:35:34;;;;;;;6.00;3.92;;;;;;;7.96;50.72;98594.75;5014077;28;20491;-59
2022/05/23 03:38:01;;;;;;;4.63;3.17;;;;;;;8.03;49.29;98585.94;5014451;28;20065;-59
2022/05/23 03:40:27;;;;;;;5.60;3.50;;;;;;;8.07;48.74;98584.97;5014006;28;20056;-59
2022/05/23 03:42:54;;;;;;;4.18;3.55;;;;;;;8.02;48.95;98588.56;5013995;28;20025;-59
2022/05/23 03:45:21;;;;;;;4.65;3.33;;;;;;;8.09;49.10;98569.44;5013943;28;20037;-59
2022/05/23 03:47:46;;;;;;;5.95;3.80;;;;;;;8.19;49.28;98580.34;5014058;28;20038;-57
2022/05/23 03:50:13;;;;;;;5.82;3.58;;;;;;;8.18;48.27;98579.50;5013776;28;20034;-58
2022/05/23 03:52:38;;;;;;;8.50;4.03;;;;;;;8.12;48.89;98575.38;5013806;28;20030;-58
2022/05/23 03:55:05;;;;;;;6.20;3.58;;;;;;;8.41;47.67;98575.38;5013745;28;20109;-58
2022/05/23 03:57:30;;;;;;;6.63;3.50;;;;;;;8.43;48.91;98578.75;5013728;28;20052;-58
2022/05/23 03:59:57;;;;;;;4.45;3.50;;;;;;;8.46;47.82;98583.84;5013744;28;20465;-58
2022/05/23 04:02:23;;;;;;;5.32;3.25;;;;;;;8.39;48.05;98583.16;5012719;28;20614;-57
2022/05/23 04:04:49;;;;;;;4.43;3.58;;;;;;;8.26;48.46;98585.25;5013297;28;20116;-59
2022/05/23 04:07:15;;;;;;;6.78;3.95;;;;;;;8.30;49.59;98580.84;5013748;28;20084;-58
2022/05/23 04:09:41;;;;;;;5.53;3.65;;;;;;;8.13;48.64;98591.66;5013590;28;20033;-58
2022/05/23 04:12:07;;;;;;;5.70;3.80;;;;;;;8.25;48.49;98586.16;5013408;28;20041;-58
2022/05/23 04:14:32;;;;;;;5.63;4.03;;;;;;;8.39;48.31;98582.31;5013348;28;20376;-58
2022/05/23 04:16:58;;;;;;;5.53;4.13;;;;;;;8.44;47.73;98585.59;5013122;28;20475;-58
2022/05/23 04:19:24;;;;;;;6.95;3.63;;;;;;;8.42;47.91;98580.50;5013554;28;20038;-59
2022/05/23 04:21:49;;;;;;;5.03;3.78;;;;;;;8.38;47.82;98578.91;5013040;28;20029;-58
2022/05/23 04:24:17;;;;;;;7.30;4.18;;;;;;;8.41;47.76;98577.97;5012538;28;20025;-58
2022/05/23 04:26:43;;;;;;;6.68;3.80;;;;;;;8.27;48.34;98580.97;5013104;28;20037;-59
2022/05/23 04:29:08;;;;;;;9.40;3.72;;;;;;;8.29;48.33;98586.91;5013032;28;20479;-59
2022/05/23 04:31:36;;;;;;;11.63;4.35;;;;;;;8.38;48.68;98580.63;5012936;28;20046;-59
2022/05/23 04:36:48;;;;;;;4.85;3.70;;;;;;;8.28;49.39;98582.66;5013200;28;20117;-59
2022/05/23 04:39:14;;;;;;;6.85;3.83;;;;;;;8.36;49.17;98579.84;5013196;28;20026;-59
2022/05/23 04:41:40;;;;;;;5.35;3.58;;;;;;;8.38;47.92;98578.91;5012848;28;20127;-59
2022/05/23 04:44:07;;;;;;;4.90;3.75;;;;;;;8.37;48.32;98574.63;5012845;28;20025;-59
2022/05/23 04:46:33;;;;;;;6.95;3.72;;;;;;;8.44;47.57;98578.72;5012517;28;20025;-59
2022/05/23 04:51:43;;;;;;;5.90;3.72;;;;;;;8.56;47.77;98580.06;5012204;28;20501;-58
2022/05/23 04:54:08;;;;;;;8.57;3.78;;;;;;;8.37;47.65;98579.78;5012462;28;20029;-58
2022/05/23 04:56:34;;;;;;;5.45;3.45;;;;;;;8.60;48.82;98581.69;5012741;28;20030;-58
2022/05/23 04:59:00;;;;;;;5.95;3.63;;;;;;;9.14;46.60;98581.69;5012120;28;20029;-58
2022/05/23 05:01:26;;;;;;;5.78;3.60;;;;;;;9.47;45.63;98579.66;5012149;28;20037;-59
2022/05/23 05:03:53;;;;;;;6.63;3.67;;;;;;;9.57;46.94;98575.03;5012222;28;20038;-59
2022/05/23 05:06:21;;;;;;;7.22;3.75;;;;;;;9.66;45.70;98573.84;5012205;28;20038;-58
2022/05/23 05:08:48;;;;;;;6.63;3.45;;;;;;;10.02;44.89;98556.16;5012188;28;20026;-59
2022/05/23 05:11:14;;;;;;;8.45;3.88;;;;;;;10.17;44.36;98554.72;5012231;28;20037;-60
2022/05/23 05:13:40;;;;;;;8.48;3.72;;;;;;;10.39;44.01;98559.13;5011848;28;20176;-60
2022/05/23 05:16:08;;;;;;;5.13;3.83;;;;;;;10.50;42.99;98543.16;5012327;28;20495;-59
2022/05/23 05:18:34;;;;;;;5.50;3.70;;;;;;;10.44;42.41;98557.19;5011924;28;20390;-59
2022/05/23 05:21:07;;;;;;;7.07;3.22;;;;;;;10.96;42.43;98545.63;5004629;28;20022;-60
2022/05/23 05:23:33;;;;;;;5.43;3.20;;;;;;;11.21;42.74;98553.22;4995815;28;20065;-58
2022/05/23 05:25:59;;;;;;;5.60;3.45;;;;;;;11.43;40.90;98540.19;5011923;28;20022;-58
2022/05/23 05:28:25;;;;;;;4.93;3.13;;;;;;;11.40;40.85;98540.28;5011941;28;20033;-58
2022/05/23 05:31:00;;;;;;;4.47;2.85;;;;;;;11.39;41.49;98555.03;5011748;28;20069;-59
2022/05/23 05:33:32;;;;;;;5.93;3.72;;;;;;;11.15;40.63;98491.28;5011869;28;20022;-59
2022/05/23 05:36:04;;;;;;;5.78;3.20;;;;;;;10.90;41.01;98499.25;5011661;28;20041;-59
2022/05/23 05:38:58;;;;;;;5.63;3.20;;;;;;;11.20;40.71;98546.34;5010682;28;20029;-59
2022/05/23 05:41:30;;;;;;;6.10;3.17;;;;;;;10.77;40.25;98486.81;5009955;28;20044;-59
2022/05/23 05:44:02;;;;;;;5.80;2.72;;;;;;;10.82;40.46;98491.81;5011552;28;20026;-59
2022/05/23 05:46:32;;;;;;;7.25;2.97;;;;;;;10.77;40.28;98486.81;5011821;28;20034;-60
2022/05/23 05:49:01;;;;;;;18.08;3.97;;;;;;;10.86;39.94;98478.66;5010990;28;20438;-59
2022/05/23 05:51:28;;;;;;;4.78;2.70;;;;;;;11.15;40.67;98536.19;5011743;28;20423;-59
2022/05/23 05:53:53;;;;;;;7.38;2.97;;;;;;;11.40;40.68;98527.34;5012116;28;20030;-59
2022/05/23 05:56:19;;;;;;;4.05;2.85;;;;;;;11.44;40.50;98518.50;5012193;28;20049;-59
2022/05/23 05:58:46;;;;;;;6.47;3.00;;;;;;;11.65;40.12;98531.47;5012285;28;20044;-60
2022/05/23 06:01:11;;;;;;;4.75;2.80;;;;;;;11.74;40.29;98526.69;5011946;28;20032;-59
2022/05/23 06:03:37;;;;;;;4.07;2.60;;;;;;;11.77;39.54;98525.69;5010760;28;20045;-59
2022/05/23 06:11:32;;;;;;;4.60;2.60;;;;;;;12.02;40.15;98514.25;5011789;28;20037;-58
2022/05/23 06:14:01;;;;;;;8.00;3.17;;;;;;;11.65;40.09;98518.50;5011619;28;20037;-58
2022/05/23 06:16:29;;;;;;;8.27;2.60;;;;;;;11.61;39.02;98471.09;5011539;28;20026;-58
2022/05/23 06:18:55;;;;;;;5.88;2.45;;;;;;;11.72;38.57;98520.72;5011747;28;20376;-58
2022/05/23 06:21:22;;;;;;;5.38;2.45;;;;;;;11.68;38.90;98507.97;5011825;28;20489;-58
2022/05/23 06:23:48;;;;;;;5.95;2.60;;;;;;;12.05;38.63;98508.91;5011948;28;20038;-58
2022/05/23 06:26:20;;;;;;;4.55;2.50;;;;;;;11.79;38.42;98510.94;5011999;28;20030;-58
2022/05/23 06:28:47;;;;;;;2.78;2.22;;;;;;;11.84;38.46;98501.19;5011801;28;20505;-58
2022/05/23 06:31:15;;;;;;;3.63;2.05;;;;;;;11.78;38.11;98506.63;5011791;28;20048;-58
2022/05/23 06:33:41;;;;;;;4.72;2.10;;;;;;;11.83;37.97;98491.72;5012232;28;20105;-58
2022/05/23 06:36:08;;;;;;;7.10;2.10;;;;;;;12.02;37.97;98496.09;5010745;28;20105;-59
2022/05/23 06:38:36;;;;;;;5.05;2.42;;;;;;;11.77;38.95;98442.69;5011851;28;20390;-59
2022/05/23 06:41:03;;;;;;;4.78;2.58;;;;;;;12.19;38.61;98484.91;5011420;28;20038;-59
2022/05/23 06:43:29;;;;;;;5.25;2.50;;;;;;;12.36;38.85;98491.91;5011067;28;20026;-58
2022/05/23 06:45:55;;;;;;;8.15;2.40;;;;;;;12.30;37.65;98492.16;5011697;28;20032;-59
2022/05/23 06:48:22;;;;;;;3.17;2.08;;;;;;;12.40;37.85;98496.03;5011726;28;20101;-59
2022/05/23 06:50:50;;;;;;;2.22;2.03;;;;;;;12.65;36.80;98482.66;5010098;28;20030;-59
2022/05/23 06:53:20;;;;;;;4.60;2.53;;;;;;;12.79;35.82;98484.59;5011891;28;20048;-59
2022/05/23 06:55:47;;;;;;;6.68;2.50;;;;;;;13.04;35.35;98479.00;5011427;28;20065;-59
2022/05/23 06:58:13;;;;;;;5.65;2.42;;;;;;;12.97;38.00;98489.75;5011713;28;20022;-59
2022/05/23 07:00:39;;;;;;;7.10;2.17;;;;;;;13.01;36.08;98486.09;5011199;28;20131;-59
2022/05/23 07:03:05;;;;;;;5.07;1.90;;;;;;;12.72;35.15;98485.81;5011235;28;20077;-59
2022/05/23 07:13:46;;;;;;;2.70;2.10;;;;;;;12.99;36.42;98483.56;5010845;28;20033;-58
2022/05/23 07:16:13;;;;;;;8.90;2.83;;;;;;;12.82;36.29;98476.63;5014520;28;20034;-58
2022/05/23 07:18:38;;;;;;;4.05;2.20;;;;;;;12.81;35.86;98455.94;5015082;28;20022;-58
2022/05/23 07:21:07;;;;;;;2.78;2.42;;;;;;;13.11;36.63;98463.91;5014579;28;20026;-58
2022/05/23 07:23:35;;;;;;;2.67;2.15;;;;;;;13.06;35.19;98458.13;5015064;28;20080;-58
2022/05/23 07:26:06;;;;;;;3.05;2.13;;;;;;;13.01;34.76;98454.91;5015319;28;20069;-59
2022/05/23 07:28:32;;;;;;;4.70;2.45;;;;;;;13.13;34.83;98467.28;5014653;28;20032;-59
2022/05/23 07:30:58;;;;;;;3.33;2.45;;;;;;;13.11;35.04;98458.72;5014757;28;20536;-59
2022/05/23 07:33:24;;;;;;;4.32;2.15;;;;;;;13.16;36.42;98461.91;5014561;28;20029;-59
2022/05/23 07:36:01;;;;;;;3.63;2.00;;;;;;;12.42;35.45;98413.69;5014726;28;20021;-59
2022/05/23 07:38:30;;;;;;;8.98;2.80;;;;;;;13.04;36.70;98465.13;5014598;28;20100;-58
2022/05/23 07:40:56;;;;;;;6.05;2.10;;;;;;;12.97;34.69;98462.03;5014407;28;20030;-59
2022/05/23 07:43:22;;;;;;;5.13;2.70;;;;;;;13.10;35.11;98452.69;5014309;28;20037;-58
2022/05/23 07:45:50;;;;;;;5.22;2.35;;;;;;;12.77;35.14;98409.31;5014212;28;20025;-59
2022/05/23 07:48:16;;;;;;;5.38;2.33;;;;;;;12.97;35.71;98448.19;5014417;28;20038;-59
2022/05/23 07:50:43;;;;;;;5.32;2.38;;;;;;;13.17;35.46;98449.75;5014062;28;20394;-60
2022/05/23 08:01:29;;;;;;;3.83;2.40;;;;;;;13.25;34.40;98442.41;5013734;28;20113;-59
2022/05/23 08:03:56;;;;;;;5.05;2.58;;;;;;;13.44;35.05;98440.53;5014148;28;20034;-59
2022/05/23 08:06:22;;;;;;;4.65;2.30;;;;;;;13.24;34.11;98423.38;5014143;28;20100;-59
2022/05/23 08:08:47;;;;;;;3.63;2.00;;;;;;;13.34;34.28;98431.53;5013127;28;20033;-58
2022/05/23 08:11:13;;;;;;;2.90;2.30;;;;;;;13.32;33.77;98428.16;5013310;28;20026;-59
2022/05/23 08:13:41;;;;;;;3.15;2.08;;;;;;;13.38;33.67;98414.88;5013367;28;20114;-58
2022/05/23 08:16:07;;;;;;;7.18;2.97;;;;;;;13.43;34.87;98435.44;5014390;28;20479;-59
2022/05/23 08:18:33;;;;;;;4.72;2.30;;;;;;;13.49;33.78;98429.06;5014576;28;20034;-58
2022/05/23 08:21:00;;;;;;;2.95;2.45;;;;;;;13.64;34.40;98430.84;5014259;28;20057;-59
2022/05/23 08:23:26;;;;;;;3.95;2.50;;;;;;;13.68;35.16;98415.88;5014234;28;20030;-59
2022/05/23 08:25:52;;;;;;;4.90;2.22;;;;;;;13.81;35.92;98414.31;5013556;28;20509;-58
2022/05/23 08:28:18;;;;;;;3.90;2.30;;;;;;;13.96;34.43;98430.81;5013899;28;20030;-59
2022/05/23 08:30:43;;;;;;;25.30;3.47;;;;;;;13.78;33.79;98419.66;5014071;28;20125;-59
2022/05/23 08:33:09;;;;;;;6.10;2.38;;;;;;;13.75;33.98;98420.69;5014156;28;20394;-58
2022/05/23 08:35:34;;;;;;;3.25;2.00;;;;;;;13.95;34.32;98413.50;5014116;28;20061;-58
2022/05/23 08:38:01;;;;;;;5.43;2.50;;;;;;;13.86;33.76;98414.88;5014154;28;20083;-59
2022/05/23 08:40:59;;;;;;;9.73;2.30;;;;;;;13.72;33.68;98414.78;5014462;28;20172;-58
2022/05/23 08:43:52;;;;;;;5.60;2.00;;;;;;;14.05;33.37;98409.47;5011147;28;20041;-59
2022/05/23 08:46:28;;;;;;;4.30;2.28;;;;;;;13.77;33.30;98361.56;4979072;28;20495;-59
2022/05/23 08:49:04;;;;;;;5.50;2.30;;;;;;;13.52;32.29;98343.88;5007395;28;20084;-59
2022/05/23 08:51:52;;;;;;;5.05;2.15;;;;;;;14.30;32.74;98408.91;5014084;28;20032;-59
2022/05/23 08:54:31;;;;;;;5.55;2.30;;;;;;;14.21;33.88;98359.13;5014020;28;20379;-58
2022/05/23 08:56:58;;;;;;;12.35;2.72;;;;;;;14.08;34.00;98351.16;5013718;28;20088;-58
2022/05/23 08:59:31;;;;;;;5.13;2.42;;;;;;;14.24;33.65;98354.59;5013549;28;20022;-59
2022/05/23 09:02:10;;;;;;;4.43;2.17;;;;;;;14.41;31.76;98343.19;5013412;28;20540;-58
2022/05/23 09:04:48;;;;;;;6.18;2.38;;;;;;;14.54;31.78;98410.19;5008967;28;20030;-60
2022/05/23 09:07:29;;;;;;;5.63;2.28;;;;;;;14.47;31.55;98409.72;5011328;28;20061;-60
2022/05/23 09:09:59;;;;;;;6.57;2.00;;;;;;;14.32;32.15;98364.53;5013476;28;20479;-58
2022/05/23 09:12:25;;;;;;;4.97;2.30;;;;;;;14.83;32.62;98385.88;5013194;28;20033;-58
2022/05/23 09:14:51;;;;;;;5.05;1.95;;;;;;;14.84;31.79;98386.72;5013082;28;20030;-58
2022/05/23 09:17:23;;;;;;;6.60;2.05;;;;;;;14.60;32.75;98360.31;5013194;28;20022;-59
2022/05/23 09:20:00;;;;;;;9.02;2.42;;;;;;;14.71;33.07;98344.06;5011872;28;20022;-58
2022/05/23 09:22:51;;;;;;;8.57;2.50;;;;;;;14.66;32.66;98342.59;5010649;28;20032;-58
2022/05/23 09:25:20;;;;;;;5.03;2.10;;;;;;;14.72;31.14;98372.66;5013545;28;20088;-58
2022/05/23 09:28:01;;;;;;;9.15;2.22;;;;;;;14.88;32.45;98401.25;5013176;28;20018;-59
2022/05/23 09:30:27;;;;;;;6.60;2.00;;;;;;;14.87;32.19;98391.75;5012896;28;20499;-59
2022/05/23 09:33:14;;;;;;;6.63;2.22;;;;;;;14.71;31.43;98357.09;5013172;28;20081;-59
2022/05/23 09:35:42;;;;;;;4.07;2.10;;;;;;;15.03;32.00;98376.00;5013146;28;20058;-59
2022/05/23 09:38:19;;;;;;;3.97;2.40;;;;;;;15.17;33.40;98372.56;5013317;28;20398;-59
2022/05/23 09:40:45;;;;;;;5.03;2.47;;;;;;;15.04;31.86;98380.31;5012875;28;20396;-59
2022/05/23 09:49:20;;;;;;;7.22;2.45;;;;;;;15.07;32.06;98379.28;5012055;28;20091;-59
2022/05/23 09:51:59;;;;;;;3.40;2.13;;;;;;;14.87;31.85;98346.59;5012512;28;20391;-58
2022/05/23 09:54:48;;;;;;;6.28;2.40;;;;;;;15.00;32.11;98382.25;5012674;28;20029;-59
2022/05/23 09:57:35;;;;;;;7.13;2.35;;;;;;;15.13;33.26;98373.69;5012921;28;20026;-60
2022/05/23 10:00:06;;;;;;;5.07;2.25;;;;;;;15.04;32.16;98369.03;5012992;28;20030;-58
2022/05/23 10:02:39;;;;;;;3.87;2.17;;;;;;;15.16;32.51;98373.47;5010397;28;20422;-59
2022/05/23 10:05:26;;;;;;;6.15;2.10;;;;;;;14.99;32.66;98327.59;5012045;28;20025;-62
2022/05/23 10:08:01;;;;;;;7.60;2.40;;;;;;;14.92;31.69;98337.56;5012409;28;20033;-60
2022/05/23 10:10:32;;;;;;;4.25;2.58;;;;;;;14.99;31.65;98364.09;5012138;28;20026;-60
2022/05/23 10:13:23;;;;;;;6.33;2.33;;;;;;;14.78;31.90;98311.50;5012362;28;20034;-59
2022/05/23 10:15:55;;;;;;;5.60;2.53;;;;;;;14.62;31.92;98324.63;5011359;28;20485;-60
2022/05/23 10:18:27;;;;;;;;;;;;;;;15.07;32.15;98376.66;5013006;28;20041;-60
2022/05/23 10:20:53;;;;;;;3.85;1.98;;;;;;;15.13;31.31;98369.28;5012409;28;19909;-60
2022/05/23 10:23:28;;;;;;;3.00;1.90;;;;;;;14.88;31.70;98320.44;5012140;28;20095;-60
2022/05/23 10:26:18;;;;;;;8.15;2.03;;;;;;;15.19;32.10;98368.06;4992808;28;20057;-59
2022/05/23 10:28:50;;;;;;;6.13;2.25;;;;;;;15.20;33.71;98374.97;5011430;28;20106;-59
2022/05/23 10:31:42;;;;;;;4.18;2.00;;;;;;;15.35;31.84;98358.38;5012444;28;20119;-60
2022/05/23 10:34:10;;;;;;;3.83;2.63;;;;;;;15.33;32.65;98369.84;5012544;28;20065;-59
2022/05/23 10:36:38;;;;;;;6.00;2.85;;;;;;;15.42;32.50;98373.63;5012533;28;20033;-59
2022/05/23 10:42:11;;;;;;;9.10;2.67;;;;;;;15.52;32.56;98362.53;5012401;28;20109;-59
2022/05/23 10:45:01;;;;;;;7.38;2.30;;;;;;;15.62;33.01;98360.19;5011069;28;20021;-60
2022/05/23 10:48:00;;;;;;;17.48;2.75;;;;;;;14.96;32.10;98356.47;5012847;28;20444;-60
2022/05/23 10:50:47;;;;;;;9.40;2.70;;;;;;;15.26;32.43;98371.97;5015667;28;20057;-60
2022/05/23 10:53:50;;;;;;;10.05;2.13;;;;;;;15.25;31.89;98351.22;5015979;28;20502;-60
2022/05/23 10:56:27;;;;;;;9.75;2.60;;;;;;;15.01;32.16;98325.75;4996412;28;20030;-60
2022/05/23 10:59:51;;;;;;;7.95;2.33;;;;;;;15.14;32.77;98363.16;5006824;28;20029;-58
2022/05/23 11:02:28;;;;;;;4.68;2.20;;;;;;;15.22;31.70;98370.53;4994012;28;20097;-59
2022/05/23 11:05:00;;;;;;;6.90;2.90;;;;;;;15.23;32.84;98366.13;5015950;28;20034;-60
2022/05/23 11:08:04;;;;;;;5.75;2.15;;;;;;;14.94;31.02;98361.75;5016054;28;20108;-60
2022/05/23 11:10:44;;;;;;;6.80;2.13;;;;;;;14.98;31.30;98308.50;5014350;28;20149;-59
2022/05/23 11:13:23;;;;;;;8.07;2.80;;;;;;;15.37;33.08;98363.50;5015286;28;20475;-60
2022/05/23 11:15:58;;;;;;;3.67;1.90;;;;;;;15.44;31.85;98351.75;5015694;28;20029;-59
2022/05/23 11:19:01;;;;;;;7.22;2.40;;;;;;;15.23;31.89;98306.97;5015730;28;20037;-60
2022/05/23 11:21:54;;;;;;;5.20;2.30;;;;;;;15.46;31.22;98351.63;5015582;28;20034;-60
2022/05/23 11:24:31;;;;;;;4.60;2.65;;;;;;;15.38;31.51;98353.88;5003299;28;20029;-60
2022/05/23 11:35:30;;;;;;;9.10;2.55;;;;;;;14.99;30.20;98312.81;5015337;28;20490;-59
2022/05/23 11:38:00;;;;;;;5.50;2.20;;;;;;;15.36;30.12;98357.44;5015336;28;20033;-59
2022/05/23 11:40:25;;;;;;;3.60;2.00;;;;;;;15.27;31.45;98365.00;5015161;28;20406;-59
2022/05/23 11:43:15;;;;;;;4.28;1.95;;;;;;;15.06;31.25;98315.84;5015095;28;20088;-59
2022/05/23 11:48:39;;;;;;;3.40;2.22;;;;;;;15.34;31.46;98354.09;5014841;28;20038;-59
2022/05/23 11:51:22;;;;;;;6.75;2.40;;;;;;;14.92;29.28;98310.66;5014989;28;20038;-60
2022/05/23 11:54:00;;;;;;;8.05;2.17;;;;;;;15.40;29.92;98359.88;5015035;28;20040;-59
2022/05/23 11:56:39;;;;;;;8.40;2.28;;;;;;;15.26;30.20;98316.38;4995460;28;20030;-59
2022/05/23 11:59:30;;;;;;;4.97;2.30;;;;;;;15.42;29.86;98356.22;4995506;28;20042;-60
2022/05/23 12:02:08;;;;;;;7.32;2.33;;;;;;;15.56;30.37;98357.94;5001896;28;20057;-59
2022/05/23 12:04:49;;;;;;;8.27;2.60;;;;;;;15.57;30.00;98354.41;5014485;28;20552;-59
2022/05/23 12:07:43;;;;;;;3.53;2.05;;;;;;;15.53;30.00;98358.16;5013165;28;20022;-58
2022/05/23 12:10:20;;;;;;;5.22;1.98;;;;;;;15.59;29.08;98352.56;5014569;28;20026;-60
2022/05/23 12:12:49;;;;;;;8.07;2.63;;;;;;;15.53;28.57;98356.38;5014459;28;20446;-59
2022/05/23 12:15:40;;;;;;;5.90;2.00;;;;;;;15.59;28.76;98349.09;5011451;28;20052;-60
2022/05/23 12:18:06;;;;;;;6.00;2.47;;;;;;;15.59;31.33;98362.13;5014727;28;20026;-60
2022/05/23 12:20:32;;;;;;;5.55;2.20;;;;;;;15.64;29.40;98353.06;5014450;28;20371;-60
2022/05/23 12:23:06;;;;;;;5.70;1.83;;;;;;;15.65;28.15;98354.75;5014625;28;20036;-59
2022/05/23 12:25:33;;;;;;;5.78;2.40;;;;;;;15.60;28.18;98366.44;5014247;28;20029;-59
2022/05/23 12:28:07;;;;;;;5.88;2.03;;;;;;;15.28;29.77;98317.97;5014325;28;20356;-58
2022/05/23 12:30:36;;;;;;;6.75;2.60;;;;;;;15.57;27.78;98359.63;5013624;28;20029;-58
2022/05/23 12:33:01;;;;;;;6.63;2.30;;;;;;;15.60;28.44;98362.03;5014313;28;20045;-59
2022/05/23 12:35:39;;;;;;;6.47;2.00;;;;;;;15.45;27.86;98358.63;5014345;28;20360;-59
2022/05/23 12:38:17;;;;;;;4.95;2.10;;;;;;;15.38;26.79;98374.75;5014487;28;20152;-59
2022/05/23 12:40:49;;;;;;;6.38;2.33;;;;;;;14.98;27.06;98321.53;5013583;28;20036;-59
2022/05/23 12:43:28;;;;;;;4.80;2.00;;;;;;;15.58;28.44;98355.25;5014075;28;20124;-59
2022/05/23 12:46:09;;;;;;;6.03;2.75;;;;;;;15.56;27.64;98354.50;5013304;28;20409;-59
2022/05/23 12:48:46;;;;;;;3.80;1.80;;;;;;;15.54;28.04;98347.59;5013748;28;20106;-59
2022/05/23 12:51:25;;;;;;;5.43;2.10;;;;;;;15.52;27.67;98346.06;5011462;28;20040;-58
2022/05/23 12:54:14;;;;;;;7.90;2.33;;;;;;;15.56;27.46;98349.28;5011339;28;20037;-59
2022/05/23 12:56:57;;;;;;;6.45;2.22;;;;;;;15.66;27.54;98339.94;5014294;28;20037;-58